createdAt,value
2022-08-04T00:02:52.193Z,26.40
2022-08-04T00:06:02.889Z,26.40
2022-08-04T00:09:10.156Z,26.00
2022-08-04T00:12:12.703Z,26.00
2022-08-04T00:15:16.669Z,25.90
2022-08-04T00:18:21.721Z,25.50
2022-08-04T00:21:25.765Z,25.50
2022-08-04T00:24:29.732Z,25.80
2022-08-04T00:27:32.219Z,25.80
2022-08-04T00:30:41.263Z,25.90
2022-08-04T00:33:46.520Z,25.80
2022-08-04T00:36:48.384Z,25.90
2022-08-04T00:39:51.583Z,26.00
2022-08-04T00:42:59.013Z,25.90
2022-08-04T00:46:16.572Z,25.80
2022-08-04T00:49:38.669Z,25.80
2022-08-04T00:52:46.267Z,25.90
2022-08-04T00:55:53.817Z,25.90
2022-08-04T00:59:02.707Z,25.60
2022-08-04T01:02:24.810Z,25.70
2022-08-04T01:05:29.681Z,25.50
2022-08-04T01:08:54.543Z,25.50
2022-08-04T01:12:07.124Z,25.60
2022-08-04T01:15:21.809Z,25.70
2022-08-04T01:18:35.845Z,25.70
2022-08-04T01:21:37.599Z,25.70
2022-08-04T01:24:50.924Z,25.50
2022-08-04T01:28:02.617Z,25.60
2022-08-04T01:31:15.291Z,25.60
2022-08-04T01:34:19.357Z,25.60
2022-08-04T01:37:36.384Z,25.50
2022-08-04T01:40:38.432Z,25.40
2022-08-04T01:43:44.250Z,25.30
2022-08-04T01:46:47.466Z,25.30
2022-08-04T01:49:49.978Z,25.20
2022-08-04T01:52:53.459Z,25.10
2022-08-04T01:55:56.977Z,25.10
2022-08-04T01:58:59.946Z,25.10
2022-08-04T02:02:01.987Z,25.10
2022-08-04T02:05:04.057Z,25.00
2022-08-04T02:08:11.825Z,25.00
2022-08-04T02:11:20.414Z,25.00
2022-08-04T02:14:38.208Z,25.00
2022-08-04T02:17:50.933Z,25.00
2022-08-04T02:20:56.242Z,25.00
2022-08-04T02:24:01.088Z,24.60
2022-08-04T02:27:03.437Z,24.30
2022-08-04T02:30:05.595Z,24.20
2022-08-04T02:33:07.775Z,24.20
2022-08-04T02:36:10.806Z,24.30
2022-08-04T02:39:13.023Z,24.40
2022-08-04T02:42:15.007Z,24.40
2022-08-04T02:45:19.228Z,24.20
2022-08-04T02:48:30.283Z,24.30
2022-08-04T02:51:37.931Z,24.40
2022-08-04T02:54:40.495Z,24.60
2022-08-04T02:57:44.508Z,24.50
2022-08-04T03:00:48.198Z,24.30
2022-08-04T03:04:02.052Z,24.00
2022-08-04T03:07:06.893Z,24.00
2022-08-04T03:10:16.504Z,23.80
2022-08-04T03:13:36.949Z,23.60
2022-08-04T03:16:44.780Z,23.50
2022-08-04T03:20:05.510Z,23.30
2022-08-04T03:23:13.424Z,23.30
2022-08-04T03:26:21.804Z,23.20
2022-08-04T03:29:36.815Z,23.40
2022-08-04T03:32:57.799Z,23.50
2022-08-04T03:36:05.596Z,23.50
2022-08-04T03:39:17.717Z,23.50
2022-08-04T03:42:25.666Z,23.50
2022-08-04T03:45:41.609Z,23.60
2022-08-04T03:48:46.269Z,23.40
2022-08-04T03:52:06.206Z,23.20
2022-08-04T03:55:13.829Z,23.40
2022-08-04T03:58:34.459Z,23.60
2022-08-04T04:02:02.164Z,23.50
2022-08-04T04:05:23.337Z,23.30
2022-08-04T04:08:27.904Z,23.10
2022-08-04T04:11:56.685Z,23.10
2022-08-04T04:15:18.809Z,23.20
2022-08-04T04:18:21.023Z,23.40
2022-08-04T04:21:41.707Z,23.40
2022-08-04T04:25:00.394Z,23.40
2022-08-04T04:28:43.751Z,23.50
2022-08-04T04:31:46.005Z,23.50
2022-08-04T04:34:50.758Z,23.70
2022-08-04T04:38:11.072Z,23.70
2022-08-04T04:41:32.298Z,23.80
2022-08-04T04:44:34.101Z,23.50
2022-08-04T04:48:08.152Z,23.40
2022-08-04T04:51:31.989Z,23.40
2022-08-04T04:54:44.048Z,23.30
2022-08-04T04:57:53.839Z,23.30
2022-08-04T05:00:56.689Z,23.60
2022-08-04T05:03:58.540Z,23.70
2022-08-04T05:07:01.186Z,23.70
2022-08-04T05:10:18.020Z,23.90
2022-08-04T05:14:36.961Z,23.90
2022-08-04T05:17:12.260Z,24.10
2022-08-04T05:20:20.600Z,24.10
2022-08-04T05:23:25.155Z,24.20
2022-08-04T05:26:30.221Z,24.30
2022-08-04T05:29:37.384Z,24.30
2022-08-04T05:32:50.719Z,24.50
2022-08-04T05:36:21.825Z,24.70
2022-08-04T05:39:24.937Z,25.00
2022-08-04T05:42:27.324Z,25.10
2022-08-04T05:45:30.246Z,25.40
2022-08-04T05:48:42.309Z,25.60
2022-08-04T05:51:44.785Z,25.70
2022-08-04T05:54:48.102Z,25.90
2022-08-04T05:57:55.365Z,26.10
2022-08-04T06:01:01.322Z,26.30
2022-08-04T06:04:06.892Z,26.60
2022-08-04T06:07:13.364Z,26.90
2022-08-04T06:10:15.288Z,27.10
2022-08-04T06:13:48.285Z,27.50
2022-08-04T06:16:41.533Z,27.80
2022-08-04T06:20:03.913Z,28.20
2022-08-04T06:23:12.413Z,28.50
2022-08-04T06:26:14.631Z,28.80
2022-08-04T08:12:35.645Z,35.60
2022-08-04T09:03:04.593Z,39.20
2022-08-04T09:13:22.169Z,39.00
2022-08-04T09:16:42.928Z,39.00
2022-08-04T09:19:45.886Z,39.40
2022-08-04T09:22:53.410Z,39.30
2022-08-04T09:26:01.102Z,39.20
2022-08-04T09:29:02.892Z,39.70
2022-08-04T09:32:23.331Z,39.50
2022-08-04T09:35:43.196Z,39.80
2022-08-04T09:38:52.349Z,39.80
2022-08-04T09:42:01.742Z,40.20
2022-08-04T09:45:07.427Z,40.10
2022-08-04T09:48:19.750Z,40.10
2022-08-04T09:51:24.702Z,40.40
2022-08-04T09:54:52.898Z,40.40
2022-08-04T09:58:02.238Z,40.70
2022-08-04T10:01:06.404Z,40.90
2022-08-04T10:04:09.596Z,40.60
2022-08-04T10:07:14.400Z,40.40
2022-08-04T10:10:16.206Z,40.50
2022-08-04T10:13:17.963Z,40.70
2022-08-04T10:16:42.637Z,40.70
2022-08-04T10:19:44.390Z,40.70
2022-08-04T10:23:10.508Z,41.10
2022-08-04T10:26:31.840Z,40.90
2022-08-04T10:29:38.364Z,40.80
2022-08-04T10:32:58.700Z,40.90
2022-08-04T10:36:03.092Z,40.80
2022-08-04T10:39:13.962Z,40.30
2022-08-04T10:42:35.952Z,40.60
2022-08-04T10:45:40.696Z,40.40
2022-08-04T10:48:42.571Z,40.00
2022-08-04T11:03:24.823Z,39.60
2022-08-04T11:06:27.024Z,39.20
2022-08-04T11:09:29.450Z,39.50
2022-08-04T11:12:32.894Z,39.50
2022-08-04T11:15:38.001Z,39.50
2022-08-04T11:18:48.194Z,39.50
2022-08-04T11:21:55.465Z,39.00
2022-08-04T11:25:15.894Z,39.40
2022-08-04T11:28:17.647Z,39.30
2022-08-04T11:31:21.377Z,39.30
2022-08-04T11:34:24.372Z,39.50
2022-08-04T11:37:28.739Z,39.60
2022-08-04T11:40:40.155Z,39.90
2022-08-04T11:44:01.389Z,39.50
2022-08-04T11:47:23.603Z,39.80
2022-08-04T11:50:28.427Z,39.70
2022-08-04T11:53:36.594Z,39.00
2022-08-04T11:56:38.764Z,39.00
2022-08-04T11:59:41.801Z,38.90
2022-08-04T12:03:01.688Z,38.60
2022-08-04T12:06:03.460Z,38.70
2022-08-04T12:09:20.535Z,38.70
2022-08-04T12:12:28.271Z,38.80
2022-08-04T12:15:31.239Z,38.70
2022-08-04T12:18:39.931Z,38.70
2022-08-04T12:21:53.221Z,38.70
2022-08-04T12:24:57.701Z,38.50
2022-08-04T12:27:59.593Z,38.70
2022-08-04T12:31:11.457Z,38.50
2022-08-04T12:34:17.151Z,38.50
2022-08-04T12:37:26.881Z,38.30
2022-08-04T12:40:36.805Z,38.50
2022-08-04T12:43:39.551Z,38.60
2022-08-04T12:46:45.221Z,38.60
2022-08-04T12:50:00.327Z,38.20
2022-08-04T12:53:10.969Z,38.40
2022-08-04T12:56:14.251Z,38.60
2022-08-04T12:59:15.987Z,38.70
2022-08-04T13:02:25.804Z,38.60
2022-08-04T13:05:29.946Z,38.60
2022-08-04T13:08:36.094Z,38.50
2022-08-04T13:11:40.202Z,38.60
2022-08-04T13:14:42.437Z,38.80
2022-08-04T13:17:53.848Z,38.90
2022-08-04T13:21:20.346Z,38.80
2022-08-04T13:24:32.722Z,39.00
2022-08-04T13:27:42.981Z,39.00
2022-08-04T13:30:46.897Z,39.00
2022-08-04T13:33:50.210Z,38.90
2022-08-04T13:36:54.994Z,38.90
2022-08-04T13:39:57.340Z,38.80
2022-08-04T13:42:59.836Z,38.80
2022-08-04T13:46:04.359Z,38.80
2022-08-04T13:49:43.074Z,38.90
2022-08-04T13:52:33.826Z,38.80
2022-08-04T13:55:36.481Z,38.80
2022-08-04T13:58:46.399Z,38.90
2022-08-04T14:01:58.327Z,38.90
2022-08-04T14:05:04.857Z,38.90
2022-08-04T14:08:09.051Z,38.80
2022-08-04T14:12:10.461Z,38.60
2022-08-04T14:14:34.843Z,38.70
2022-08-04T14:17:36.917Z,38.70
2022-08-04T14:20:40.964Z,38.80
2022-08-04T14:23:47.149Z,38.70
2022-08-04T14:26:50.202Z,38.70
2022-08-04T14:29:52.526Z,38.60
2022-08-04T14:34:02.598Z,38.50
2022-08-04T14:36:23.157Z,38.50
2022-08-04T14:39:40.387Z,38.60
2022-08-04T14:42:44.302Z,38.50
2022-08-04T14:45:55.025Z,38.60
2022-08-04T14:49:05.083Z,38.50
2022-08-04T14:52:23.067Z,38.40
2022-08-04T14:55:25.562Z,38.50
2022-08-04T14:58:33.746Z,38.50
2022-08-04T15:01:42.309Z,38.50
2022-08-04T15:04:46.502Z,38.50
2022-08-04T15:07:48.826Z,38.30
2022-08-04T15:10:52.118Z,38.20
2022-08-04T15:13:54.866Z,38.20
2022-08-04T15:16:56.875Z,38.20
2022-08-04T15:19:59.200Z,38.20
2022-08-04T15:23:10.115Z,38.20
2022-08-04T15:26:15.684Z,38.20
2022-08-04T15:29:20.390Z,38.30
2022-08-04T15:32:22.693Z,38.30
2022-08-04T15:38:39.005Z,38.40
2022-08-04T15:42:13.120Z,38.30
2022-08-04T15:45:21.688Z,38.20
2022-08-04T15:48:24.519Z,38.20
2022-08-04T15:51:32.177Z,38.20
2022-08-04T15:54:34.865Z,38.10
2022-08-04T15:57:59.167Z,38.00
2022-08-04T16:01:02.568Z,38.00
2022-08-04T16:04:30.806Z,38.00
2022-08-04T16:07:53.023Z,37.80
2022-08-04T16:10:55.122Z,37.90
2022-08-04T16:13:59.996Z,37.70
2022-08-04T16:17:22.271Z,37.80
2022-08-04T16:20:24.404Z,37.80
2022-08-04T16:23:53.177Z,37.70
2022-08-04T16:26:56.293Z,37.70
2022-08-04T16:30:06.835Z,37.70
2022-08-04T16:33:11.664Z,37.60
2022-08-04T16:36:13.787Z,37.50
2022-08-04T16:39:20.990Z,37.50
2022-08-04T16:42:33.296Z,37.50
2022-08-04T16:45:45.009Z,37.50
2022-08-04T16:49:05.822Z,37.40
2022-08-04T16:52:13.330Z,37.50
2022-08-04T16:55:19.353Z,37.40
2022-08-04T16:58:25.792Z,37.30
2022-08-04T17:01:32.944Z,37.20
2022-08-04T17:04:36.760Z,37.10
2022-08-04T17:08:02.418Z,37.10
2022-08-04T17:11:14.330Z,37.10
2022-08-04T17:14:21.450Z,37.00
2022-08-04T17:17:23.465Z,37.00
2022-08-04T17:20:28.681Z,37.00
2022-08-04T17:24:14.616Z,36.90
2022-08-04T17:28:20.101Z,36.80
2022-08-04T17:30:36.138Z,36.90
2022-08-04T17:36:47.468Z,36.60
2022-08-04T17:39:50.405Z,36.50
2022-08-04T17:44:00.956Z,36.40
2022-08-04T17:46:28.615Z,36.30
2022-08-04T17:49:31.803Z,36.30
2022-08-04T17:53:11.516Z,36.30
2022-08-04T17:56:33.103Z,36.00
2022-08-04T17:59:56.905Z,36.00
2022-08-04T18:03:00.113Z,35.70
2022-08-04T18:06:12.911Z,35.60
2022-08-04T18:09:22.233Z,35.50
2022-08-04T18:12:43.291Z,35.50
2022-08-04T18:15:46.847Z,35.30
2022-08-04T18:19:07.542Z,35.20
2022-08-04T18:22:16.576Z,35.00
2022-08-04T18:25:51.250Z,35.00
2022-08-04T18:28:51.460Z,34.90
2022-08-04T18:31:53.357Z,34.70
2022-08-04T18:34:55.863Z,34.50
2022-08-04T18:38:06.180Z,34.40
2022-08-04T18:41:09.866Z,34.30
2022-08-04T18:44:11.813Z,34.20
2022-08-04T18:47:54.565Z,34.00
2022-08-04T18:51:09.462Z,33.80
2022-08-04T18:53:59.491Z,33.90
2022-08-04T18:57:34.247Z,33.80
2022-08-04T19:00:23.009Z,33.50
2022-08-04T19:03:25.086Z,33.40
2022-08-04T19:06:32.399Z,33.30
2022-08-04T19:12:56.142Z,33.10
2022-08-04T19:15:58.576Z,33.00
2022-08-04T19:19:05.602Z,32.80
2022-08-04T19:22:08.234Z,32.90
2022-08-04T19:25:10.172Z,32.70
2022-08-04T19:28:17.388Z,32.50
2022-08-04T19:31:24.970Z,32.40
2022-08-04T19:34:33.216Z,32.30
2022-08-04T19:37:56.703Z,32.20
2022-08-04T19:40:58.696Z,32.00
2022-08-04T19:44:00.761Z,32.00
2022-08-04T19:48:17.827Z,32.00
2022-08-04T19:50:24.820Z,32.00
2022-08-04T19:56:48.817Z,31.50
2022-08-04T19:59:51.160Z,31.40
2022-08-04T20:02:57.512Z,31.20
2022-08-04T20:05:59.322Z,31.10
2022-08-04T20:09:01.248Z,31.10
2022-08-04T20:12:03.185Z,31.20
2022-08-04T20:15:05.438Z,31.10
2022-08-04T20:18:34.986Z,31.10
2022-08-04T20:25:18.298Z,30.70
2022-08-04T20:28:36.230Z,30.80
2022-08-04T20:31:43.119Z,30.60
2022-08-04T20:34:45.279Z,30.50
2022-08-04T20:41:09.311Z,30.50
2022-08-04T20:44:11.383Z,30.60
2022-08-04T20:47:13.262Z,30.50
2022-08-04T20:50:15.990Z,30.50
2022-08-04T20:53:17.774Z,30.50
2022-08-04T20:56:30.624Z,30.20
2022-08-04T20:59:33.668Z,29.90
2022-08-04T21:02:38.196Z,30.00
2022-08-04T21:05:43.228Z,29.80
2022-08-04T21:08:57.346Z,29.80
2022-08-04T21:12:00.058Z,29.80
2022-08-04T21:15:13.547Z,29.90
2022-08-04T21:18:18.170Z,29.90
2022-08-04T21:21:35.476Z,29.90
2022-08-04T21:24:38.591Z,29.90
2022-08-04T21:27:42.482Z,29.60
2022-08-04T21:30:54.217Z,29.50
2022-08-04T21:33:57.852Z,29.60
2022-08-04T21:37:00.368Z,29.50
2022-08-04T21:40:15.323Z,29.50
2022-08-04T21:43:17.374Z,29.60
2022-08-04T21:46:22.046Z,29.70
2022-08-04T21:49:23.806Z,29.90
2022-08-04T21:52:28.710Z,29.90
2022-08-04T21:56:05.958Z,29.90
2022-08-04T21:58:52.363Z,29.90
2022-08-04T22:02:01.034Z,29.90
2022-08-04T22:05:03.416Z,29.90
2022-08-04T22:08:05.977Z,29.80
2022-08-04T22:11:26.825Z,29.60
2022-08-04T22:14:50.471Z,29.70
2022-08-04T22:18:01.022Z,29.70
2022-08-04T22:21:11.897Z,29.80
2022-08-04T22:24:14.610Z,29.70
2022-08-04T22:27:16.461Z,29.50
2022-08-04T22:30:20.011Z,29.50
2022-08-04T22:33:22.835Z,29.40
2022-08-04T22:36:25.192Z,29.40
2022-08-04T22:39:27.519Z,29.30
2022-08-04T22:42:29.614Z,29.40
2022-08-04T22:45:44.860Z,29.30
2022-08-04T22:48:47.046Z,29.30
2022-08-04T22:51:50.858Z,29.50
2022-08-04T22:54:53.223Z,29.50
2022-08-04T22:58:04.954Z,29.40
2022-08-04T23:01:11.458Z,29.40
2022-08-04T23:04:13.353Z,29.20
2022-08-04T23:07:15.351Z,29.10
2022-08-04T23:10:18.156Z,29.10
2022-08-04T23:13:26.277Z,29.10
2022-08-04T23:16:28.197Z,29.00
2022-08-04T23:19:30.289Z,28.90
2022-08-04T23:22:41.719Z,28.80
2022-08-04T23:26:02.648Z,28.70
2022-08-04T23:29:07.013Z,28.70
2022-08-04T23:32:08.915Z,28.60
2022-08-04T23:35:10.736Z,28.60
2022-08-04T23:38:30.550Z,28.70
2022-08-04T23:41:54.269Z,28.50
2022-08-04T23:44:55.853Z,28.40
2022-08-04T23:48:14.593Z,28.40
2022-08-04T23:51:18.623Z,28.60
2022-08-04T23:54:23.438Z,28.70
2022-08-04T23:57:31.265Z,28.80
